createdAt,value
2023-02-11T00:02:06.864Z,9.24
2023-02-11T00:04:39.937Z,9.21
2023-02-11T00:07:12.804Z,9.27
2023-02-11T00:09:47.632Z,9.27
2023-02-11T00:12:20.733Z,9.28
2023-02-11T00:14:53.950Z,9.29
2023-02-11T00:17:28.369Z,9.20
2023-02-11T00:20:01.182Z,9.18
2023-02-11T00:22:34.194Z,9.18
2023-02-11T00:25:07.498Z,9.19
2023-02-11T00:27:40.648Z,9.21
2023-02-11T00:30:14.165Z,9.19
2023-02-11T00:32:48.547Z,9.23
2023-02-11T00:35:21.927Z,9.22
2023-02-11T00:37:55.494Z,9.22
2023-02-11T00:40:28.424Z,9.20
2023-02-11T00:43:01.112Z,9.25
2023-02-11T00:45:34.062Z,9.28
2023-02-11T00:48:09.505Z,9.27
2023-02-11T00:50:43.915Z,9.21
2023-02-11T00:53:17.217Z,9.14
2023-02-11T00:55:50.368Z,9.26
2023-02-11T00:58:23.661Z,9.26
2023-02-11T01:00:56.889Z,9.23
2023-02-11T01:03:32.486Z,9.27
2023-02-11T01:06:06.318Z,9.26
2023-02-11T01:08:39.693Z,9.21
2023-02-11T01:11:17.465Z,9.20
2023-02-11T01:13:51.754Z,9.22
2023-02-11T01:16:24.610Z,9.21
2023-02-11T01:19:00.897Z,9.21
2023-02-11T01:21:33.694Z,9.26
2023-02-11T01:24:06.985Z,9.27
2023-02-11T01:26:39.858Z,9.25
2023-02-11T01:29:14.553Z,9.22
2023-02-11T01:31:47.430Z,9.21
2023-02-11T01:34:21.453Z,9.20
2023-02-11T01:36:58.830Z,9.23
2023-02-11T01:39:34.869Z,9.22
2023-02-11T01:42:12.382Z,9.10
2023-02-11T01:44:45.665Z,9.13
2023-02-11T01:47:18.626Z,9.12
2023-02-11T01:50:01.626Z,9.14
2023-02-11T01:52:40.848Z,9.12
2023-02-11T01:55:38.469Z,9.06
2023-02-11T01:58:11.325Z,8.99
2023-02-11T02:00:44.171Z,9.01
2023-02-11T02:03:22.420Z,8.95
2023-02-11T02:06:08.684Z,8.96
2023-02-11T02:08:45.720Z,8.92
2023-02-11T02:11:19.133Z,8.99
2023-02-11T02:13:52.495Z,8.96
2023-02-11T02:16:38.025Z,8.90
2023-02-11T02:19:33.521Z,8.81
2023-02-11T02:22:50.359Z,8.90
2023-02-11T02:25:41.393Z,8.85
2023-02-11T02:28:37.130Z,8.83
2023-02-11T02:31:33.926Z,8.80
2023-02-11T02:34:14.872Z,8.83
2023-02-11T02:36:56.697Z,8.68
2023-02-11T02:39:34.883Z,8.72
2023-02-11T02:42:09.442Z,8.73
2023-02-11T02:44:42.366Z,8.72
2023-02-11T02:47:15.440Z,8.66
2023-02-11T02:49:50.096Z,8.67
2023-02-11T02:52:36.433Z,8.47
2023-02-11T02:55:36.087Z,8.45
2023-02-11T02:58:35.766Z,8.58
2023-02-11T03:01:19.872Z,8.64
2023-02-11T03:04:02.245Z,8.59
2023-02-11T03:06:47.018Z,8.61
2023-02-11T03:09:25.940Z,8.56
2023-02-11T03:11:58.914Z,8.56
2023-02-11T03:14:33.376Z,8.61
2023-02-11T03:17:09.121Z,8.54
2023-02-11T03:19:45.005Z,8.35
2023-02-11T03:22:25.780Z,8.50
2023-02-11T03:24:58.991Z,8.40
2023-02-11T03:27:42.598Z,8.45
2023-02-11T03:30:20.111Z,8.50
2023-02-11T03:32:56.904Z,8.42
2023-02-11T03:35:36.857Z,8.41
2023-02-11T03:38:15.455Z,8.40
2023-02-11T03:40:48.698Z,8.36
2023-02-11T03:43:24.074Z,8.45
2023-02-11T03:45:58.165Z,8.44
2023-02-11T03:48:34.102Z,8.40
2023-02-11T03:51:09.166Z,8.40
2023-02-11T03:53:45.567Z,8.46
2023-02-11T03:56:22.821Z,8.33
2023-02-11T03:58:55.918Z,8.37
2023-02-11T04:01:28.660Z,8.27
2023-02-11T04:04:01.483Z,8.41
2023-02-11T04:06:34.221Z,8.32
2023-02-11T04:09:08.908Z,8.36
2023-02-11T04:11:41.761Z,8.31
2023-02-11T04:14:14.682Z,8.22
2023-02-11T04:16:47.273Z,8.21
2023-02-11T04:19:20.119Z,8.22
2023-02-11T04:21:53.118Z,8.17
2023-02-11T04:24:27.090Z,8.16
2023-02-11T04:26:59.911Z,8.18
2023-02-11T04:29:33.159Z,8.04
2023-02-11T04:32:06.235Z,8.10
2023-02-11T04:34:39.524Z,8.11
2023-02-11T04:37:12.391Z,8.23
2023-02-11T04:39:46.740Z,8.27
2023-02-11T04:42:19.594Z,8.25
2023-02-11T04:44:52.522Z,8.22
2023-02-11T04:47:25.230Z,8.18
2023-02-11T04:49:58.495Z,8.21
2023-02-11T04:52:31.226Z,8.19
2023-02-11T04:55:06.212Z,8.27
2023-02-11T04:57:39.275Z,8.22
2023-02-11T05:00:12.425Z,8.17
2023-02-11T05:02:45.176Z,8.25
2023-02-11T05:05:18.118Z,8.31
2023-02-11T05:07:51.056Z,8.25
2023-02-11T05:10:25.379Z,8.24
2023-02-11T05:12:58.113Z,8.27
2023-02-11T05:15:31.057Z,8.23
2023-02-11T05:18:03.719Z,8.29
2023-02-11T05:20:38.966Z,8.34
2023-02-11T05:23:12.587Z,8.18
2023-02-11T05:25:46.812Z,8.23
2023-02-11T05:28:19.648Z,8.28
2023-02-11T05:30:52.684Z,8.25
2023-02-11T05:33:25.657Z,8.30
2023-02-11T05:36:00.182Z,8.36
2023-02-11T05:38:33.394Z,8.29
2023-02-11T05:41:07.857Z,8.36
2023-02-11T05:43:42.113Z,8.38
2023-02-11T05:46:15.042Z,8.31
2023-02-11T05:48:47.916Z,8.39
2023-02-11T05:51:20.785Z,8.31
2023-02-11T05:53:53.712Z,8.34
2023-02-11T05:56:27.948Z,8.36
2023-02-11T05:59:00.887Z,8.34
2023-02-11T06:01:33.522Z,8.36
2023-02-11T06:04:06.492Z,8.37
2023-02-11T06:06:39.674Z,8.30
2023-02-11T06:09:12.684Z,8.41
2023-02-11T06:11:46.571Z,8.51
2023-02-11T06:14:19.401Z,8.44
2023-02-11T06:16:52.333Z,8.37
2023-02-11T06:19:24.945Z,8.26
2023-02-11T06:21:59.729Z,8.28
2023-02-11T06:24:58.638Z,8.36
2023-02-11T06:27:27.228Z,8.39
2023-02-11T06:30:00.106Z,8.34
2023-02-11T06:32:48.852Z,8.27
2023-02-11T06:35:21.766Z,8.34
2023-02-11T06:37:54.746Z,8.34
2023-02-11T06:40:27.782Z,8.24
2023-02-11T06:43:01.879Z,8.33
2023-02-11T06:45:34.678Z,8.39
2023-02-11T06:48:07.643Z,8.30
2023-02-11T06:50:40.448Z,8.28
2023-02-11T06:53:13.602Z,8.13
2023-02-11T06:55:46.631Z,8.12
2023-02-11T06:58:20.925Z,8.08
2023-02-11T07:00:53.830Z,8.08
2023-02-11T07:03:27.917Z,8.18
2023-02-11T07:06:03.178Z,8.19
2023-02-11T07:08:37.527Z,8.16
2023-02-11T07:11:12.140Z,8.07
2023-02-11T07:13:46.511Z,8.19
2023-02-11T07:16:22.959Z,8.13
2023-02-11T07:18:55.931Z,8.23
2023-02-11T07:21:29.274Z,8.19
2023-02-11T07:24:02.397Z,8.13
2023-02-11T07:27:10.956Z,8.11
2023-02-11T07:29:45.987Z,8.13
2023-02-11T07:32:18.923Z,8.11
2023-02-11T07:34:51.855Z,8.23
2023-02-11T07:37:24.495Z,8.23
2023-02-11T07:39:57.269Z,8.21
2023-02-11T07:42:30.009Z,8.29
2023-02-11T07:45:04.405Z,8.21
2023-02-11T07:47:38.142Z,8.25
2023-02-11T07:50:11.540Z,8.25
2023-02-11T07:52:44.524Z,8.29
2023-02-11T07:55:17.348Z,8.33
2023-02-11T07:57:50.814Z,8.34
2023-02-11T08:00:25.072Z,8.39
2023-02-11T08:02:58.320Z,8.41
2023-02-11T08:05:31.188Z,8.45
2023-02-11T08:08:05.622Z,8.48
2023-02-11T08:10:38.519Z,8.51
2023-02-11T08:13:11.407Z,8.57
2023-02-11T08:15:45.455Z,8.61
2023-02-11T08:18:18.334Z,8.61
2023-02-11T08:20:51.687Z,8.68
2023-02-11T08:23:31.058Z,8.88
2023-02-11T08:26:08.295Z,9.24
2023-02-11T08:28:42.712Z,9.36
2023-02-11T08:31:19.857Z,9.47
2023-02-11T08:33:54.625Z,9.52
2023-02-11T08:36:30.485Z,9.53
2023-02-11T08:39:17.906Z,9.55
2023-02-11T08:41:53.704Z,9.66
2023-02-11T08:44:26.515Z,9.72
2023-02-11T08:47:00.517Z,9.77
2023-02-11T08:49:34.072Z,9.73
2023-02-11T08:52:07.173Z,9.78
2023-02-11T08:54:40.251Z,9.86
2023-02-11T08:57:13.347Z,9.94
2023-02-11T08:59:46.224Z,9.99
2023-02-11T09:02:20.251Z,10.04
2023-02-11T09:04:53.067Z,10.01
2023-02-11T09:07:26.010Z,10.01
2023-02-11T09:09:58.686Z,10.11
2023-02-11T09:12:31.446Z,10.02
2023-02-11T09:15:04.401Z,10.19
2023-02-11T09:17:40.869Z,10.18
2023-02-11T09:20:13.668Z,10.14
2023-02-11T09:22:47.697Z,10.29
2023-02-11T09:25:20.453Z,10.21
2023-02-11T09:27:53.862Z,10.29
2023-02-11T09:30:27.016Z,10.26
2023-02-11T09:33:01.146Z,10.27
2023-02-11T09:35:34.830Z,10.34
2023-02-11T09:38:07.902Z,10.36
2023-02-11T09:40:43.672Z,10.50
2023-02-11T09:43:21.078Z,10.37
2023-02-11T09:45:56.749Z,10.40
2023-02-11T09:48:39.530Z,10.48
2023-02-11T09:51:21.168Z,10.48
2023-02-11T09:54:00.922Z,10.60
2023-02-11T09:56:34.759Z,10.67
2023-02-11T09:59:11.343Z,10.71
2023-02-11T10:01:50.405Z,10.73
2023-02-11T10:04:39.634Z,10.81
2023-02-11T10:07:20.578Z,10.81
2023-02-11T10:10:03.618Z,10.91
2023-02-11T10:12:48.481Z,10.92
2023-02-11T10:15:31.924Z,10.91
2023-02-11T10:18:33.409Z,10.93
2023-02-11T10:21:18.899Z,10.94
2023-02-11T10:23:55.411Z,11.03
2023-02-11T10:26:31.902Z,11.11
2023-02-11T10:29:15.206Z,11.10
2023-02-11T10:31:50.402Z,11.19
2023-02-11T10:34:23.197Z,11.24
2023-02-11T10:36:57.416Z,11.25
2023-02-11T10:39:30.317Z,11.28
2023-02-11T10:42:06.012Z,11.42
2023-02-11T10:44:40.175Z,11.38
2023-02-11T10:47:18.945Z,11.41
2023-02-11T10:49:52.227Z,11.30
2023-02-11T10:52:30.516Z,11.57
2023-02-11T10:55:06.921Z,11.50
2023-02-11T10:57:44.629Z,11.60
2023-02-11T11:00:36.788Z,11.42
2023-02-11T11:03:19.995Z,11.52
2023-02-11T11:05:57.236Z,11.40
2023-02-11T11:08:42.870Z,11.33
2023-02-11T11:11:17.654Z,11.43
2023-02-11T11:13:57.996Z,11.48
2023-02-11T11:16:32.309Z,11.42
2023-02-11T11:19:21.349Z,11.50
2023-02-11T11:21:57.239Z,11.57
2023-02-11T11:24:34.861Z,11.45
2023-02-11T11:27:08.201Z,11.41
2023-02-11T11:29:47.246Z,11.42
2023-02-11T11:32:23.582Z,11.40
2023-02-11T11:35:00.367Z,11.46
2023-02-11T11:37:35.962Z,11.37
2023-02-11T11:40:23.957Z,11.37
2023-02-11T11:43:16.342Z,11.49
2023-02-11T11:45:56.812Z,11.51
2023-02-11T11:48:35.809Z,11.48
2023-02-11T11:51:12.398Z,11.46
2023-02-11T11:53:51.720Z,11.49
2023-02-11T11:56:30.000Z,11.46
2023-02-11T11:59:11.320Z,11.51
2023-02-11T12:02:03.094Z,11.52
2023-02-11T12:04:56.866Z,11.52
2023-02-11T12:07:43.948Z,11.60
2023-02-11T12:10:30.739Z,11.42
2023-02-11T12:13:25.025Z,11.51
2023-02-11T12:16:07.048Z,11.46
2023-02-11T12:19:01.872Z,11.62
2023-02-11T12:21:46.515Z,11.56
2023-02-11T12:24:33.033Z,11.55
2023-02-11T12:27:15.490Z,11.66
2023-02-11T12:30:03.004Z,11.58
2023-02-11T12:32:43.915Z,11.56
2023-02-11T12:35:38.503Z,11.62
2023-02-11T12:38:35.884Z,11.59
2023-02-11T12:41:45.127Z,11.60
2023-02-11T12:44:27.097Z,11.69
2023-02-11T12:47:07.649Z,11.71
2023-02-11T12:50:08.874Z,11.73
2023-02-11T12:52:56.705Z,11.73
2023-02-11T12:55:38.184Z,11.78
2023-02-11T12:58:16.459Z,11.67
2023-02-11T13:00:52.509Z,11.73
2023-02-11T13:03:33.195Z,11.97
2023-02-11T13:06:10.405Z,11.96
2023-02-11T13:08:48.255Z,11.81
2023-02-11T13:11:25.420Z,11.75
2023-02-11T13:14:03.165Z,11.98
2023-02-11T13:16:43.395Z,11.88
2023-02-11T13:19:25.071Z,11.94
2023-02-11T13:22:11.236Z,11.94
2023-02-11T13:24:45.878Z,11.93
2023-02-11T13:27:31.029Z,12.26
2023-02-11T13:30:23.573Z,12.33
2023-02-11T13:33:21.131Z,12.37
2023-02-11T13:36:15.805Z,12.42
2023-02-11T13:38:58.190Z,12.40
2023-02-11T13:41:34.876Z,12.43
2023-02-11T13:44:23.225Z,12.51
2023-02-11T13:46:59.775Z,12.53
2023-02-11T13:49:37.537Z,12.56
2023-02-11T13:52:26.016Z,12.48
2023-02-11T13:55:07.053Z,12.48
2023-02-11T13:57:41.661Z,12.51
2023-02-11T14:00:46.294Z,12.50
2023-02-11T14:07:47.617Z,12.53
2023-02-11T14:10:52.382Z,12.50
2023-02-11T14:13:29.204Z,12.51
2023-02-11T14:16:13.483Z,12.47
2023-02-11T14:19:03.157Z,12.45
2023-02-11T14:21:43.190Z,12.44
2023-02-11T14:24:48.531Z,12.45
2023-02-11T14:27:41.174Z,12.49
2023-02-11T14:30:31.177Z,12.47
2023-02-11T14:33:21.112Z,12.46
2023-02-11T14:36:10.221Z,12.56
2023-02-11T14:38:59.495Z,12.36
2023-02-11T14:41:41.255Z,12.37
2023-02-11T14:44:20.143Z,12.37
2023-02-11T14:46:55.683Z,12.38
2023-02-11T14:49:32.108Z,12.37
2023-02-11T14:52:17.089Z,12.37
2023-02-11T14:54:52.424Z,12.36
2023-02-11T14:57:28.131Z,12.29
2023-02-11T15:00:03.209Z,12.39
2023-02-11T15:02:38.783Z,12.38
2023-02-11T15:05:17.201Z,12.34
2023-02-11T15:07:52.817Z,12.32
2023-02-11T15:10:32.506Z,12.24
2023-02-11T15:13:08.183Z,12.27
2023-02-11T15:15:41.529Z,12.26
2023-02-11T15:18:22.826Z,12.30
2023-02-11T15:20:56.224Z,12.29
2023-02-11T15:23:32.217Z,12.29
2023-02-11T15:26:16.689Z,12.24
2023-02-11T15:28:52.147Z,12.29
2023-02-11T15:31:27.560Z,12.23
2023-02-11T15:34:08.933Z,12.19
2023-02-11T15:36:42.247Z,12.19
2023-02-11T15:39:31.600Z,12.15
2023-02-11T15:42:21.679Z,12.18
2023-02-11T15:45:25.327Z,12.10
2023-02-11T15:48:00.134Z,12.11
2023-02-11T15:50:37.117Z,12.06
2023-02-11T15:53:24.109Z,12.01
2023-02-11T15:56:04.019Z,12.05
2023-02-11T15:58:42.114Z,11.99
2023-02-11T16:01:19.705Z,12.03
2023-02-11T16:03:52.782Z,12.06
2023-02-11T16:06:30.863Z,11.99
2023-02-11T16:09:06.238Z,11.97
2023-02-11T16:11:58.140Z,11.92
2023-02-11T16:14:37.214Z,11.85
2023-02-11T16:17:26.002Z,11.86
2023-02-11T16:20:01.705Z,11.84
2023-02-11T16:22:40.279Z,11.79
2023-02-11T16:25:23.123Z,11.80
2023-02-11T16:27:57.027Z,11.78
2023-02-11T16:30:38.157Z,11.68
2023-02-11T16:33:20.307Z,11.71
2023-02-11T17:02:45.024Z,11.48
2023-02-11T17:05:25.223Z,11.44
2023-02-11T17:07:58.436Z,11.42
2023-02-11T17:10:32.518Z,11.45
2023-02-11T17:13:06.082Z,11.42
2023-02-11T17:15:40.351Z,11.44
2023-02-11T17:18:15.303Z,11.37
2023-02-11T17:20:48.540Z,11.39
2023-02-11T17:23:21.457Z,11.38
2023-02-11T17:35:09.287Z,11.28
2023-02-11T17:37:42.170Z,11.30
2023-02-11T19:18:55.161Z,10.83
2023-02-11T19:21:28.366Z,10.91
2023-02-11T19:24:09.113Z,10.86
2023-02-11T19:26:45.052Z,10.86
2023-02-11T19:29:23.567Z,10.83
2023-02-11T19:32:02.029Z,10.83
2023-02-11T19:34:41.564Z,10.82
2023-02-11T19:37:17.404Z,10.84
2023-02-11T19:39:50.643Z,10.82
2023-02-11T19:42:26.548Z,10.81
2023-02-11T19:45:00.864Z,10.83
2023-02-11T19:47:34.241Z,10.84
2023-02-11T19:50:14.593Z,10.79
2023-02-11T19:52:50.089Z,10.79
2023-02-11T19:55:30.411Z,10.79
2023-02-11T19:58:04.846Z,10.79
2023-02-11T20:03:42.482Z,10.79
2023-02-11T20:06:21.311Z,10.81
2023-02-11T20:08:58.418Z,10.77
2023-02-11T20:11:32.951Z,10.80
2023-02-11T20:14:07.020Z,10.81
2023-02-11T20:16:48.651Z,10.87
2023-02-11T20:19:27.268Z,10.82
2023-02-11T20:22:02.204Z,10.78
2023-02-11T20:24:38.362Z,10.80
2023-02-11T20:27:13.644Z,10.77
2023-02-11T20:29:46.868Z,10.86
2023-02-11T20:32:20.086Z,10.79
2023-02-11T20:34:53.515Z,10.76
2023-02-11T20:37:29.156Z,10.75
2023-02-11T20:40:02.573Z,10.72
2023-02-11T20:42:36.448Z,10.77
2023-02-11T20:45:10.904Z,10.76
2023-02-11T20:47:44.279Z,10.73
2023-02-11T20:50:17.725Z,10.71
2023-02-11T20:52:52.104Z,10.77
2023-02-11T20:55:25.076Z,10.79
2023-02-11T20:57:57.965Z,10.75
2023-02-11T21:00:31.125Z,10.79
2023-02-11T21:03:04.885Z,10.81
2023-02-11T21:05:37.906Z,10.84
2023-02-11T21:08:12.580Z,10.78
2023-02-11T21:10:49.572Z,10.75
2023-02-11T21:13:22.507Z,10.78
2023-02-11T21:15:57.130Z,10.73
2023-02-11T21:18:30.234Z,10.73
2023-02-11T21:21:06.939Z,10.75
2023-02-11T21:23:41.333Z,10.71
2023-02-11T21:26:14.591Z,10.72
2023-02-11T21:28:48.684Z,10.73
2023-02-11T21:31:23.284Z,10.68
2023-02-11T21:33:56.801Z,10.72
2023-02-11T21:36:31.079Z,10.72
2023-02-11T21:39:06.004Z,10.71
2023-02-11T21:41:39.245Z,10.75
2023-02-11T21:44:12.233Z,10.75
2023-02-11T21:46:45.047Z,10.68
2023-02-11T21:49:19.723Z,10.71
2023-02-11T21:51:52.704Z,10.72
2023-02-11T21:54:31.969Z,10.73
2023-02-11T21:57:05.133Z,10.71
2023-02-11T21:59:38.574Z,10.77
2023-02-11T22:02:12.137Z,10.72
2023-02-11T22:04:45.203Z,10.68
2023-02-11T22:07:18.479Z,10.66
2023-02-11T22:09:54.774Z,10.62
2023-02-11T22:12:27.569Z,10.64
2023-02-11T22:15:00.491Z,10.62
2023-02-11T22:17:35.998Z,10.63
2023-02-11T22:20:10.134Z,10.65
2023-02-11T22:22:43.183Z,10.69
2023-02-11T22:25:17.377Z,10.69
2023-02-11T22:27:50.445Z,10.74
2023-02-11T22:30:23.254Z,10.71
2023-02-11T22:32:56.109Z,10.63
2023-02-11T22:35:29.432Z,10.64
2023-02-11T22:38:05.214Z,10.63
2023-02-11T22:40:43.861Z,10.59
2023-02-11T22:43:16.778Z,10.60
2023-02-11T22:45:49.857Z,10.62
2023-02-11T22:48:23.321Z,10.56
2023-02-11T22:50:56.126Z,10.59
2023-02-11T22:53:28.953Z,10.61
2023-02-11T22:56:07.210Z,10.63
2023-02-11T22:58:40.337Z,10.65
2023-02-11T23:01:13.810Z,10.64
2023-02-11T23:03:46.966Z,10.69
2023-02-11T23:06:20.181Z,10.67
2023-02-11T23:08:53.096Z,10.70
2023-02-11T23:11:28.651Z,10.72
2023-02-11T23:14:02.679Z,10.67
2023-02-11T23:16:36.172Z,10.68
2023-02-11T23:19:10.108Z,10.67
2023-02-11T23:21:42.982Z,10.68
2023-02-11T23:24:16.666Z,10.68
2023-02-11T23:26:51.080Z,10.61
2023-02-11T23:29:24.256Z,10.62
2023-02-11T23:31:58.952Z,10.62
2023-02-11T23:34:32.807Z,10.62
2023-02-11T23:37:05.805Z,10.63
2023-02-11T23:39:39.437Z,10.61
2023-02-11T23:42:13.959Z,10.57
2023-02-11T23:44:50.037Z,10.59
2023-02-11T23:47:23.524Z,10.58
2023-02-11T23:49:59.336Z,10.61
2023-02-11T23:52:32.636Z,10.58
2023-02-11T23:55:06.241Z,10.61
2023-02-11T23:57:40.614Z,10.59
